Time;durP1;ratioP1;P1;durP2;ratioP2;P2;SDS_P1;SDS_P2;PMS_P1;PMS_P2;Temp;Humidity;BMP_temperature;BMP_pressure;BME280_temperature;BME280_humidity;BME280_pressure;Samples;Min_cycle;Max_cycle;Signal;HPM_P1;HPM_P2
2023/09/12 00:01:06;;;;;;;27.00;19.17;;;;;;;22.18;100.00;101141.69;5038832;28;20455;-64
2023/09/12 00:03:54;;;;;;;25.60;19.90;;;;;;;22.11;100.00;101145.78;5039959;28;20053;-64
2023/09/12 00:06:42;;;;;;;26.67;19.83;;;;;;;22.02;100.00;101152.56;5038857;28;20523;-64
2023/09/12 00:09:30;;;;;;;22.20;18.02;;;;;;;21.99;100.00;101176.25;5045023;28;20356;-65
2023/09/12 00:12:23;;;;;;;24.83;16.00;;;;;;;22.04;100.00;101173.28;5054266;28;20048;-65
2023/09/12 00:15:12;;;;;;;23.85;16.23;;;;;;;22.09;100.00;101181.38;5065458;28;20041;-64
2023/09/12 00:18:00;;;;;;;28.20;18.58;;;;;;;22.13;100.00;101182.34;5052997;28;20155;-64
2023/09/12 00:20:49;;;;;;;22.58;15.70;;;;;;;22.16;100.00;101186.41;5052022;28;20052;-64
2023/09/12 00:23:37;;;;;;;21.67;16.25;;;;;;;22.17;100.00;101181.66;5038726;28;20390;-65
2023/09/12 00:26:25;;;;;;;22.10;15.70;;;;;;;22.13;100.00;101185.13;5053804;28;20098;-64
2023/09/12 00:29:13;;;;;;;24.48;16.20;;;;;;;22.14;100.00;101177.59;5050339;28;20500;-65
2023/09/12 00:32:01;;;;;;;25.60;19.60;;;;;;;22.13;100.00;101178.78;5052678;28;20071;-64
2023/09/12 00:34:49;;;;;;;23.98;18.60;;;;;;;22.06;100.00;101179.31;5053145;28;20037;-64
2023/09/12 00:37:37;;;;;;;33.83;17.73;;;;;;;22.03;100.00;101187.47;5052857;28;20079;-64
2023/09/12 00:40:25;;;;;;;25.15;18.98;;;;;;;21.96;100.00;101192.75;5043123;28;20148;-65
2023/09/12 00:43:13;;;;;;;24.85;18.55;;;;;;;21.89;100.00;101187.75;5019088;28;20045;-64
2023/09/12 00:46:01;;;;;;;22.10;17.45;;;;;;;21.85;100.00;101189.56;5018758;28;20045;-64
2023/09/12 00:48:52;;;;;;;22.23;17.02;;;;;;;21.85;100.00;101179.28;5036384;28;20048;-64
2023/09/12 00:51:41;;;;;;;23.88;17.25;;;;;;;21.86;100.00;101180.06;5037084;28;20055;-64
2023/09/12 00:54:29;;;;;;;22.05;16.45;;;;;;;21.87;100.00;101165.88;5024498;28;20107;-64
2023/09/12 00:57:17;;;;;;;21.00;16.20;;;;;;;21.91;100.00;101166.00;5053483;28;20041;-64
2023/09/12 01:00:11;;;;;;;22.60;18.10;;;;;;;21.91;100.00;101166.84;5035398;28;20053;-63
2023/09/12 01:02:59;;;;;;;21.73;17.05;;;;;;;21.93;100.00;101160.94;5036350;28;20603;-64
2023/09/12 01:05:48;;;;;;;27.23;19.10;;;;;;;21.92;100.00;101162.09;5051198;28;20045;-65
2023/09/12 01:08:39;;;;;;;24.58;16.77;;;;;;;21.90;100.00;101151.31;5024813;28;20122;-63
2023/09/12 01:11:28;;;;;;;24.85;19.40;;;;;;;21.91;100.00;101157.69;5044001;28;20060;-64
2023/09/12 01:14:16;;;;;;;25.45;19.58;;;;;;;21.90;100.00;101150.53;5052088;28;20041;-64
2023/09/12 01:17:04;;;;;;;26.80;20.05;;;;;;;21.88;100.00;101147.25;5024503;28;20045;-65
2023/09/12 01:19:52;;;;;;;24.13;18.90;;;;;;;21.86;100.00;101150.41;5031664;28;20050;-64
2023/09/12 01:22:59;;;;;;;25.85;20.10;;;;;;;21.85;100.00;101139.63;5030184;28;20049;-65
2023/09/12 01:26:32;;;;;;;28.52;20.35;;;;;;;21.82;100.00;101132.78;5037194;28;20341;-64
2023/09/12 01:29:22;;;;;;;24.17;18.02;;;;;;;21.79;100.00;101139.03;5033813;28;20130;-63
2023/09/12 01:32:10;;;;;;;20.73;14.50;;;;;;;21.79;100.00;101147.34;5026677;28;20045;-63
2023/09/12 01:34:59;;;;;;;20.33;14.93;;;;;;;21.81;100.00;101142.25;5018241;28;20050;-64
2023/09/12 01:37:47;;;;;;;21.33;16.88;;;;;;;21.82;100.00;101146.66;5017221;28;20512;-65
2023/09/12 01:40:47;;;;;;;24.75;18.55;;;;;;;21.80;100.00;101142.59;5017615;28;20088;-64
2023/09/12 01:43:36;;;;;;;27.67;17.63;;;;;;;21.76;100.00;101144.41;5048136;28;20136;-64
2023/09/12 01:46:26;;;;;;;20.35;14.73;;;;;;;21.73;100.00;101136.78;5023296;28;20194;-65
2023/09/12 01:49:15;;;;;;;23.20;15.82;;;;;;;21.72;100.00;101137.91;5049890;28;20045;-66
2023/09/12 01:52:04;;;;;;;23.92;16.83;;;;;;;21.72;100.00;101135.13;5035756;28;20044;-65
2023/09/12 01:54:52;;;;;;;19.25;14.80;;;;;;;21.72;100.00;101135.97;5027997;28;20057;-65
2023/09/12 01:57:41;;;;;;;20.67;14.57;;;;;;;21.71;100.00;101137.09;5020721;28;20037;-64
2023/09/12 02:00:29;;;;;;;18.67;14.27;;;;;;;21.69;100.00;101137.44;5021907;28;20509;-64
2023/09/12 02:03:17;;;;;;;20.15;13.95;;;;;;;21.70;100.00;101129.94;5021023;28;20044;-64
2023/09/12 02:06:05;;;;;;;29.92;17.23;;;;;;;21.68;100.00;101133.03;5038386;28;20489;-65
2023/09/12 02:08:53;;;;;;;21.60;17.15;;;;;;;21.64;100.00;101131.28;5033495;28;20065;-56
2023/09/12 02:11:42;;;;;;;20.88;15.32;;;;;;;21.59;100.00;101129.50;5039160;28;20521;-59
2023/09/12 02:14:30;;;;;;;25.30;16.83;;;;;;;21.58;100.00;101130.66;5062982;28;20056;-63
2023/09/12 02:17:18;;;;;;;23.52;16.55;;;;;;;21.56;100.00;101135.72;5059494;28;20139;-63
2023/09/12 02:20:09;;;;;;;20.33;15.50;;;;;;;21.56;100.00;101134.91;5052554;28;20088;-63
2023/09/12 02:22:57;;;;;;;23.50;16.70;;;;;;;21.52;100.00;101129.22;5047847;28;20068;-62
2023/09/12 02:25:45;;;;;;;22.83;17.08;;;;;;;21.48;100.00;101136.59;5053660;28;20139;-64
2023/09/12 02:28:33;;;;;;;22.20;17.13;;;;;;;21.42;100.00;101135.16;5047001;28;20130;-64
2023/09/12 02:31:21;;;;;;;22.95;16.98;;;;;;;21.39;100.00;101138.56;5034922;28;20049;-64
2023/09/12 02:34:09;;;;;;;21.88;17.27;;;;;;;21.32;100.00;101146.59;5041122;28;20041;-64
2023/09/12 02:36:57;;;;;;;26.00;17.67;;;;;;;21.28;100.00;101150.00;5026452;28;20056;-64
2023/09/12 02:39:45;;;;;;;23.27;18.42;;;;;;;21.24;100.00;101160.16;5041993;28;20456;-64
2023/09/12 02:42:33;;;;;;;22.80;17.05;;;;;;;21.23;100.00;101163.25;5039591;28;20412;-64
2023/09/12 02:45:21;;;;;;;23.42;16.95;;;;;;;21.21;100.00;101158.06;5045301;28;20122;-64
2023/09/12 02:48:09;;;;;;;22.73;16.63;;;;;;;21.21;100.00;101158.06;5039589;28;20049;-64
2023/09/12 02:50:58;;;;;;;19.10;14.55;;;;;;;21.19;100.00;101160.34;5039474;28;20045;-65
2023/09/12 02:53:46;;;;;;;21.00;14.57;;;;;;;21.19;100.00;101149.25;5037802;28;20049;-64
2023/09/12 02:56:34;;;;;;;19.63;12.90;;;;;;;21.25;100.00;101156.22;5039793;28;20120;-64
2023/09/12 02:59:22;;;;;;;17.63;13.27;;;;;;;21.30;100.00;101154.41;5039001;28;20124;-64
2023/09/12 03:02:10;;;;;;;19.90;14.68;;;;;;;21.28;100.00;101152.78;5024074;28;20053;-64
2023/09/12 03:04:58;;;;;;;19.45;15.32;;;;;;;21.25;100.00;101159.00;5037818;28;20049;-65
2023/09/12 03:07:46;;;;;;;26.77;18.60;;;;;;;21.21;100.00;101158.06;5039021;28;20087;-64
2023/09/12 03:10:34;;;;;;;23.42;17.80;;;;;;;21.18;100.00;101153.16;5039855;28;20106;-64
2023/09/12 03:13:24;;;;;;;19.52;15.65;;;;;;;21.16;100.00;101144.34;5050610;28;20052;-64
2023/09/12 03:16:13;;;;;;;20.70;14.23;;;;;;;21.16;100.00;101149.91;5013173;28;20080;-64
2023/09/12 03:19:02;;;;;;;16.05;13.63;;;;;;;21.18;100.00;101153.16;5038459;28;20041;-63
2023/09/12 03:21:50;;;;;;;18.55;14.07;;;;;;;21.19;100.00;101153.97;5034773;28;20043;-64
2023/09/12 03:24:38;;;;;;;19.48;13.43;;;;;;;21.15;100.00;101153.81;5034139;28;20045;-64
2023/09/12 03:27:27;;;;;;;18.77;13.80;;;;;;;21.11;100.00;101147.31;5018357;28;20054;-64
2023/09/12 03:30:15;;;;;;;24.23;14.95;;;;;;;21.09;100.00;101141.28;5034401;28;20056;-64
2023/09/12 03:33:04;;;;;;;21.98;14.60;;;;;;;21.05;100.00;101135.59;5040882;28;20128;-64
2023/09/12 03:35:54;;;;;;;19.50;14.27;;;;;;;21.04;100.00;101133.16;5006958;28;20052;-64
2023/09/12 03:38:42;;;;;;;18.75;13.95;;;;;;;21.04;100.00;101130.38;5034859;28;20080;-64
2023/09/12 03:41:31;;;;;;;20.75;15.13;;;;;;;21.02;100.00;101138.22;5033017;28;20123;-64
2023/09/12 03:44:18;;;;;;;22.13;15.93;;;;;;;21.02;100.00;101132.66;5032473;28;20049;-64
2023/09/12 03:47:06;;;;;;;25.70;17.88;;;;;;;21.03;100.00;101124.03;5020063;28;20097;-63
2023/09/12 03:49:55;;;;;;;26.30;18.92;;;;;;;21.01;100.00;101115.25;5032479;28;20053;-65
2023/09/12 03:52:43;;;;;;;25.23;17.65;;;;;;;20.99;100.00;101119.47;5019537;28;20049;-63
2023/09/12 03:55:31;;;;;;;26.70;19.30;;;;;;;20.96;100.00;101117.38;5032493;28;20134;-65
2023/09/12 03:58:19;;;;;;;26.50;19.67;;;;;;;20.92;100.00;101110.88;5005452;28;20049;-64
2023/09/12 04:01:07;;;;;;;25.75;18.65;;;;;;;20.89;100.00;101111.53;5033882;28;20045;-64
2023/09/12 04:03:56;;;;;;;27.38;20.40;;;;;;;20.89;100.00;101117.09;5044861;28;20128;-64
2023/09/12 04:06:44;;;;;;;25.15;19.00;;;;;;;20.87;100.00;101116.59;5050869;28;20045;-65
2023/09/12 04:09:32;;;;;;;21.10;15.90;;;;;;;20.87;100.00;101125.72;5036299;28;20044;-64
2023/09/12 04:12:20;;;;;;;18.88;14.82;;;;;;;20.90;100.00;101125.06;5037841;28;20056;-65
2023/09/12 04:15:09;;;;;;;22.85;15.82;;;;;;;20.92;100.00;101119.19;5029632;28;20116;-64
2023/09/12 04:17:57;;;;;;;24.88;17.52;;;;;;;20.93;100.00;101106.97;5052228;28;20045;-64
2023/09/12 04:20:45;;;;;;;26.05;19.70;;;;;;;20.89;100.00;101106.00;5036808;28;20060;-64
2023/09/12 04:23:33;;;;;;;21.17;15.52;;;;;;;20.84;100.00;101105.03;5032766;28;20494;-65
2023/09/12 04:26:23;;;;;;;23.23;15.68;;;;;;;20.87;100.00;101113.81;5028701;28;20144;-64
2023/09/12 04:29:11;;;;;;;19.45;15.32;;;;;;;20.87;100.00;101111.06;5019064;28;20084;-64
2023/09/12 04:31:59;;;;;;;21.58;15.35;;;;;;;20.87;100.00;101103.56;5030364;28;20053;-64
2023/09/12 04:34:48;;;;;;;22.58;15.02;;;;;;;20.91;100.00;101106.50;5032340;28;20153;-65
2023/09/12 04:37:37;;;;;;;24.98;14.77;;;;;;;20.93;100.00;101112.53;5018315;28;20053;-65
2023/09/12 04:40:25;;;;;;;29.38;17.63;;;;;;;20.93;100.00;101120.81;5038148;28;20064;-64
2023/09/12 04:43:13;;;;;;;23.75;17.80;;;;;;;20.87;100.00;101116.59;5029790;28;20057;-65
2023/09/12 04:46:01;;;;;;;27.70;19.30;;;;;;;20.82;100.00;101123.13;5032982;28;20079;-64
2023/09/12 04:48:50;;;;;;;24.40;17.73;;;;;;;20.77;100.00;101121.34;5018030;28;20086;-64
2023/09/12 04:51:38;;;;;;;22.65;16.02;;;;;;;20.75;100.00;101126.41;5037573;28;20045;-64
2023/09/12 04:54:26;;;;;;;20.55;14.93;;;;;;;20.73;100.00;101125.91;5032555;28;20177;-65
2023/09/12 04:57:14;;;;;;;20.60;15.75;;;;;;;20.76;100.00;101124.47;5050337;28;20056;-64
2023/09/12 05:00:04;;;;;;;19.42;13.90;;;;;;;20.76;100.00;101130.81;5057121;28;20041;-65
2023/09/12 05:02:53;;;;;;;19.02;13.35;;;;;;;20.78;100.00;101124.91;5037691;28;20052;-64
2023/09/12 05:05:41;;;;;;;21.25;16.63;;;;;;;20.77;100.00;101126.06;5018019;28;20049;-64
2023/09/12 05:08:29;;;;;;;23.13;15.30;;;;;;;20.71;100.00;101122.69;5035568;28;20045;-64
2023/09/12 05:11:17;;;;;;;23.30;16.67;;;;;;;20.63;100.00;101132.59;5022762;28;20040;-63
2023/09/12 05:14:05;;;;;;;19.25;14.18;;;;;;;20.61;100.00;101139.63;5029449;28;20057;-64
2023/09/12 05:16:54;;;;;;;17.65;13.52;;;;;;;20.66;100.00;101146.94;5042231;28;20445;-65
2023/09/12 05:19:42;;;;;;;25.83;16.38;;;;;;;20.66;100.00;101147.78;5050688;28;20048;-64
2023/09/12 05:22:30;;;;;;;18.63;14.20;;;;;;;20.65;100.00;101135.06;5038018;28;20037;-64
2023/09/12 05:25:18;;;;;;;25.30;16.48;;;;;;;20.63;100.00;101148.41;5037312;28;20060;-65
2023/09/12 05:28:07;;;;;;;25.15;18.08;;;;;;;20.58;100.00;101141.09;5035697;28;20076;-65
2023/09/12 05:30:55;;;;;;;24.98;17.58;;;;;;;20.53;100.00;101143.19;5051487;28;20077;-64
2023/09/12 05:33:43;;;;;;;18.27;13.73;;;;;;;20.51;100.00;101140.75;5048624;28;20068;-64
2023/09/12 05:36:31;;;;;;;21.02;14.75;;;;;;;20.54;100.00;101145.66;5046258;28;20452;-65
2023/09/12 05:39:20;;;;;;;23.88;17.02;;;;;;;20.55;100.00;101140.91;5029360;28;20053;-64
2023/09/12 05:42:08;;;;;;;27.58;18.52;;;;;;;20.55;100.00;101135.38;5016582;28;20046;-65
2023/09/12 05:44:56;;;;;;;20.33;15.27;;;;;;;20.53;100.00;101132.94;5044048;28;20060;-65
2023/09/12 05:47:44;;;;;;;27.08;18.17;;;;;;;20.54;100.00;101137.34;5035126;28;20041;-64
2023/09/12 05:50:33;;;;;;;24.50;17.60;;;;;;;20.51;100.00;101139.94;5048494;28;20072;-65
2023/09/12 05:53:21;;;;;;;25.77;19.13;;;;;;;20.48;100.00;101146.94;5024960;28;20512;-65
2023/09/12 05:56:09;;;;;;;24.25;18.02;;;;;;;20.48;100.00;101137.81;5028530;28;20104;-63
2023/09/12 05:58:57;;;;;;;26.63;18.17;;;;;;;20.47;100.00;101139.78;4674440;28;10000590;-64
2023/09/12 06:01:46;;;;;;;24.92;18.25;;;;;;;20.47;100.00;101134.25;5029711;28;20080;-65
2023/09/12 06:04:34;;;;;;;23.88;18.08;;;;;;;20.47;100.00;101136.19;5031571;28;20142;-64
2023/09/12 06:07:22;;;;;;;22.13;15.75;;;;;;;20.48;100.00;101135.06;5032886;28;20119;-65
2023/09/12 06:10:10;;;;;;;19.08;14.32;;;;;;;20.52;100.00;101136.03;5030490;28;20045;-64
2023/09/12 06:12:58;;;;;;;20.15;14.40;;;;;;;20.57;100.00;101135.91;5007452;28;20052;-64
2023/09/12 06:15:47;;;;;;;18.42;14.40;;;;;;;20.58;100.00;101140.28;5050508;28;20397;-64
2023/09/12 06:18:35;;;;;;;22.27;14.88;;;;;;;20.59;100.00;101141.91;5037630;28;20110;-64
2023/09/12 06:21:23;;;;;;;20.85;14.75;;;;;;;20.59;100.00;101147.47;5036311;28;20400;-65
2023/09/12 06:24:16;;;;;;;25.33;18.80;;;;;;;20.53;100.00;101155.06;5049660;28;20041;-65
2023/09/12 06:27:04;;;;;;;25.83;18.15;;;;;;;20.45;100.00;101149.56;5052155;28;20459;-63
2023/09/12 06:29:52;;;;;;;27.33;19.60;;;;;;;20.44;100.00;101151.50;5029454;28;20172;-63
2023/09/12 06:32:40;;;;;;;29.50;21.55;;;;;;;20.42;100.00;101154.59;5050865;28;20041;-59
2023/09/12 06:35:28;;;;;;;28.88;21.13;;;;;;;20.39;100.00;101158.00;5051787;28;20048;-64
2023/09/12 06:38:17;;;;;;;27.27;19.90;;;;;;;20.39;100.00;101155.25;5060288;28;20409;-63
2023/09/12 06:41:05;;;;;;;29.67;20.10;;;;;;;20.39;100.00;101152.47;5044114;28;20052;-58
2023/09/12 06:43:54;;;;;;;27.65;20.00;;;;;;;20.39;100.00;101160.78;5046719;28;20064;-64
2023/09/12 06:46:42;;;;;;;33.58;21.92;;;;;;;20.36;100.00;101158.66;5067568;28;20049;-63
2023/09/12 06:49:32;;;;;;;25.80;19.23;;;;;;;20.31;100.00;101150.53;5037022;28;20405;-65
2023/09/12 06:52:22;;;;;;;29.95;20.17;;;;;;;20.28;100.00;101155.91;5020616;28;20081;-63
2023/09/12 06:55:10;;;;;;;28.55;19.75;;;;;;;20.21;100.00;101159.97;5051106;28;20079;-63
2023/09/12 06:57:58;;;;;;;33.72;19.60;;;;;;;20.19;100.00;101155.91;5055269;28;20041;-63
2023/09/12 07:00:46;;;;;;;29.75;16.75;;;;;;;20.20;100.00;101157.53;5032534;28;20107;-64
2023/09/12 07:03:35;;;;;;;30.17;17.85;;;;;;;20.26;100.00;101166.50;5021101;28;20514;-62
2023/09/12 07:06:24;;;;;;;28.83;16.88;;;;;;;20.32;100.00;101177.06;5050300;28;20041;-62
2023/09/12 07:09:14;;;;;;;26.80;17.92;;;;;;;20.35;100.00;101175.63;5030764;28;20052;-64
2023/09/12 07:12:05;;;;;;;27.17;17.77;;;;;;;20.36;100.00;101169.75;5007340;28;20180;-64
2023/09/12 07:14:53;;;;;;;35.65;19.30;;;;;;;20.34;100.00;101177.53;5032525;28;20060;-64
2023/09/12 07:17:41;;;;;;;27.23;19.02;;;;;;;20.31;100.00;101180.97;5021274;28;20053;-64
2023/09/12 07:20:29;;;;;;;38.13;20.33;;;;;;;20.29;100.00;101174.13;5050055;28;20055;-64
2023/09/12 07:23:17;;;;;;;31.67;19.50;;;;;;;20.28;100.00;101172.53;5053475;28;20504;-65
2023/09/12 07:26:05;;;;;;;25.92;17.73;;;;;;;20.29;100.00;101172.19;5047473;28;20505;-65
2023/09/12 07:28:53;;;;;;;28.00;17.45;;;;;;;20.31;100.00;101175.44;5036127;28;20135;-65
2023/09/12 07:31:41;;;;;;;26.45;15.75;;;;;;;20.35;100.00;101184.72;5045082;28;20124;-64
2023/09/12 07:34:29;;;;;;;38.50;18.27;;;;;;;20.43;100.00;101189.44;5019379;28;20053;-64
2023/09/12 07:37:17;;;;;;;26.50;15.80;;;;;;;20.51;100.00;101175.91;5015163;28;20041;-64
2023/09/12 07:40:09;;;;;;;22.60;16.15;;;;;;;20.58;100.00;101179.03;5031569;28;20065;-65
2023/09/12 07:42:58;;;;;;;23.77;15.85;;;;;;;20.60;100.00;101179.53;5020044;28;20053;-65
2023/09/12 07:45:46;;;;;;;29.70;17.67;;;;;;;20.62;100.00;101177.25;5053482;28;20048;-66
2023/09/12 07:48:34;;;;;;;26.55;18.42;;;;;;;20.60;100.00;101188.66;5050424;28;20045;-65
2023/09/12 07:51:22;;;;;;;33.17;20.55;;;;;;;20.61;100.00;101181.16;5054150;28;20092;-65
2023/09/12 07:54:10;;;;;;;29.58;21.70;;;;;;;20.53;100.00;101184.72;5051651;28;20052;-65
2023/09/12 07:56:59;;;;;;;25.90;18.98;;;;;;;20.46;100.00;101187.97;5053590;28;20053;-66
2023/09/12 07:59:47;;;;;;;26.13;18.58;;;;;;;20.47;100.00;101192.38;5032876;28;20060;-63
2023/09/12 08:02:35;;;;;;;27.13;18.80;;;;;;;20.52;100.00;101181.13;5030422;28;20080;-62
2023/09/12 08:05:23;;;;;;;26.73;19.33;;;;;;;20.54;100.00;101183.56;5053923;28;20045;-63
2023/09/12 08:08:11;;;;;;;25.52;16.92;;;;;;;20.59;100.00;101178.72;5052428;28;20032;-64
2023/09/12 08:10:59;;;;;;;27.02;18.60;;;;;;;20.67;100.00;101173.50;5043614;28;20037;-63
2023/09/12 08:13:49;;;;;;;23.95;17.63;;;;;;;20.68;100.00;101170.38;5053451;28;20052;-63
2023/09/12 08:16:38;;;;;;;27.10;18.42;;;;;;;20.70;100.00;101172.84;5026085;28;20061;-63
2023/09/12 08:19:26;;;;;;;24.67;15.55;;;;;;;20.67;100.00;101179.84;5044753;28;20065;-63
2023/09/12 08:22:14;;;;;;;25.80;17.80;;;;;;;20.70;100.00;101176.41;5038702;28;20138;-64
2023/09/12 08:25:03;;;;;;;24.55;17.77;;;;;;;20.69;100.00;101190.59;5052585;28;20041;-62
2023/09/12 08:27:51;;;;;;;24.45;17.95;;;;;;;20.69;100.00;101196.94;5033249;28;20421;-62
2023/09/12 08:30:39;;;;;;;27.83;19.67;;;;;;;20.70;100.00;101198.56;5013996;28;20414;-63
2023/09/12 08:33:27;;;;;;;24.35;15.55;;;;;;;20.72;100.00;101196.28;5001316;28;20046;-62
2023/09/12 08:36:15;;;;;;;21.30;14.30;;;;;;;20.79;100.00;101202.16;5002173;28;20038;-64
2023/09/12 08:39:04;;;;;;;22.95;14.55;;;;;;;20.89;100.00;101200.19;5005652;28;20049;-65
2023/09/12 08:41:53;;;;;;;29.65;21.25;;;;;;;20.79;100.00;101199.38;5032343;28;20510;-64
2023/09/12 08:44:42;;;;;;;29.50;21.35;;;;;;;20.70;100.00;101208.84;5020640;28;20053;-63
2023/09/12 08:47:31;;;;;;;30.00;21.75;;;;;;;20.68;100.00;101209.16;5016833;28;20437;-64
2023/09/12 08:50:23;;;;;;;23.45;16.83;;;;;;;20.72;100.00;101210.13;5019269;28;20054;-63
2023/09/12 08:53:11;;;;;;;27.33;19.95;;;;;;;20.79;100.00;101217.97;5013304;28;20045;-62
2023/09/12 08:56:03;;;;;;;31.55;22.73;;;;;;;20.79;100.00;101221.53;5027505;28;20049;-65
2023/09/12 08:58:53;;;;;;;33.03;22.15;;;;;;;20.83;100.00;101230.81;5013338;28;20050;-64
2023/09/12 09:01:41;;;;;;;25.63;19.60;;;;;;;20.91;100.00;101225.59;5015648;28;20131;-64
2023/09/12 09:04:31;;;;;;;25.75;19.25;;;;;;;20.97;100.00;101229.81;5018629;28;20045;-64
2023/09/12 09:07:20;;;;;;;30.10;19.75;;;;;;;21.03;100.00;101222.97;5011838;28;20406;-65
2023/09/12 09:10:14;;;;;;;28.40;17.33;;;;;;;21.07;100.00;101229.50;5012419;28;20060;-62
2023/09/12 09:13:06;;;;;;;21.70;16.20;;;;;;;21.05;100.00;101229.81;5012231;28;20073;-66
2023/09/12 09:16:18;;;;;;;21.10;16.23;;;;;;;21.06;100.00;101230.63;5002009;28;20041;-64
2023/09/12 09:19:12;;;;;;;25.15;17.02;;;;;;;21.08;100.00;101239.41;5031053;28;20041;-63
2023/09/12 09:22:06;;;;;;;23.00;16.02;;;;;;;21.10;100.00;101233.56;5031572;28;20053;-64
2023/09/12 09:25:12;;;;;;;22.27;16.27;;;;;;;21.08;100.00;101235.84;5015944;28;20150;-64
2023/09/12 09:28:04;;;;;;;21.92;15.85;;;;;;;21.08;100.00;101241.38;5016482;28;20085;-63
2023/09/12 09:30:54;;;;;;;23.25;14.55;;;;;;;21.09;100.00;101237.44;5016110;28;20050;-63
2023/09/12 09:33:51;;;;;;;22.52;14.88;;;;;;;21.12;100.00;101232.09;5017493;28;20502;-64
2023/09/12 09:36:46;;;;;;;19.13;13.93;;;;;;;21.14;100.00;101213.16;5016137;28;20146;-63
2023/09/12 09:39:35;;;;;;;20.10;14.15;;;;;;;21.19;100.00;101215.75;5017002;28;20041;-63
2023/09/12 09:42:24;;;;;;;21.60;14.73;;;;;;;21.24;100.00;101215.56;5017514;28;20045;-64
2023/09/12 09:45:12;;;;;;;22.25;14.88;;;;;;;21.26;100.00;101210.53;5016317;28;20041;-63
2023/09/12 09:48:07;;;;;;;16.30;10.40;;;;;;;21.38;100.00;101211.75;5016656;28;20042;-63
2023/09/12 09:51:02;;;;;;;16.70;11.30;;;;;;;21.50;100.00;101209.13;5021412;28;20041;-63
2023/09/12 09:53:57;;;;;;;;;;;;;;;21.57;100.00;101209.44;5032668;28;20034;-64
2023/09/12 09:56:56;;;;;;;17.40;11.30;;;;;;;21.61;100.00;101209.59;5019498;28;20281;-64
2023/09/12 09:59:51;;;;;;;17.73;11.85;;;;;;;21.67;100.00;101211.84;5021282;28;20068;-64
2023/09/12 10:02:40;;;;;;;18.75;13.25;;;;;;;21.74;100.00;101210.50;5036311;28;20049;-63
2023/09/12 10:05:29;;;;;;;18.85;13.02;;;;;;;21.78;100.00;101215.03;5019016;28;20045;-64
2023/09/12 10:08:19;;;;;;;17.58;11.88;;;;;;;21.79;100.00;101208.38;4993792;28;20048;-64
2023/09/12 10:11:08;;;;;;;18.52;12.80;;;;;;;21.84;100.00;101208.16;5017164;28;20057;-65
2023/09/12 10:13:57;;;;;;;20.50;12.43;;;;;;;21.86;100.00;101208.66;5021346;28;20172;-63
2023/09/12 10:16:51;;;;;;;19.50;11.27;;;;;;;21.91;100.00;101213.16;5015332;28;20050;-63
2023/09/12 10:19:43;;;;;;;13.88;9.27;;;;;;;21.96;100.00;101209.38;5021792;28;20142;-63
2023/09/12 10:22:40;;;;;;;14.75;8.00;;;;;;;21.97;100.00;101208.25;5026953;28;20065;-63
2023/09/12 10:25:29;;;;;;;13.98;8.32;;;;;;;21.99;100.00;101201.22;5029353;28;20051;-67
2023/09/12 10:28:19;;;;;;;13.10;8.40;;;;;;;22.00;100.00;101205.59;5055899;28;20053;-64
2023/09/12 10:31:08;;;;;;;12.73;7.43;;;;;;;22.04;100.00;101200.22;5055124;28;20128;-64
2023/09/12 10:33:57;;;;;;;13.27;8.07;;;;;;;22.05;100.00;101204.59;4347943;28;10000720;-64
2023/09/12 10:36:47;;;;;;;12.88;8.23;;;;;;;22.05;100.00;101197.09;5031367;28;20597;-63
2023/09/12 10:39:36;;;;;;;12.35;8.38;;;;;;;22.06;100.00;101198.72;5031131;28;20493;-63
2023/09/12 10:42:26;;;;;;;17.15;10.60;;;;;;;22.08;100.00;101192.81;5036565;28;20055;-63
2023/09/12 10:45:14;;;;;;;15.95;10.85;;;;;;;22.08;100.00;101190.88;5020853;28;20049;-63
2023/09/12 10:48:02;;;;;;;18.58;11.05;;;;;;;22.10;100.00;101187.75;5035720;28;20171;-63
2023/09/12 10:50:50;;;;;;;16.30;10.75;;;;;;;22.10;100.00;101191.38;5059188;28;20045;-61
2023/09/12 10:53:39;;;;;;;17.98;12.35;;;;;;;22.15;100.00;101192.28;5067007;28;20055;-62
2023/09/12 10:56:32;;;;;;;16.27;11.02;;;;;;;22.19;100.00;101187.69;5068021;28;20049;-63
2023/09/12 10:59:25;;;;;;;18.30;12.80;;;;;;;22.19;100.00;101184.91;5043762;28;20055;-64
2023/09/12 11:02:35;;;;;;;16.88;11.25;;;;;;;22.18;100.00;101194.41;5055482;28;20041;-64
2023/09/12 11:05:29;;;;;;;15.35;10.07;;;;;;;22.18;100.00;101183.31;5036583;28;20053;-64
2023/09/12 11:08:17;;;;;;;15.27;8.18;;;;;;;22.19;97.17;101182.16;5036644;28;20464;-62
2023/09/12 11:11:21;;;;;;;12.40;6.32;;;;;;;22.22;96.29;101187.84;5060641;28;20076;-64
2023/09/12 11:14:10;;;;;;;11.90;6.10;;;;;;;22.27;95.52;101190.44;5039780;28;20552;-64
2023/09/12 11:17:06;;;;;;;10.80;6.50;;;;;;;22.29;95.21;101190.91;5032682;28;20049;-64
2023/09/12 11:20:09;;;;;;;12.43;6.93;;;;;;;22.34;95.88;101178.78;5018044;28;20058;-65
2023/09/12 11:23:10;;;;;;;11.10;6.93;;;;;;;22.39;95.85;101181.34;5049154;28;20111;-64
2023/09/12 11:26:11;;;;;;;15.95;8.88;;;;;;;22.46;97.80;101184.38;5036933;28;20053;-64
2023/09/12 11:29:12;;;;;;;15.57;10.23;;;;;;;22.49;97.72;101178.19;5051069;28;20665;-64
2023/09/12 11:32:02;;;;;;;14.20;9.88;;;;;;;22.51;97.51;101169.47;5035666;28;20124;-63
2023/09/12 11:34:50;;;;;;;15.20;9.55;;;;;;;22.52;97.45;101171.94;5044728;28;20053;-65
2023/09/12 11:37:38;;;;;;;14.75;9.32;;;;;;;22.55;97.47;101179.56;5034669;28;20446;-64
2023/09/12 11:40:33;;;;;;;15.65;9.88;;;;;;;22.57;95.46;101168.13;5040884;28;20049;-66
2023/09/12 11:43:25;;;;;;;16.58;9.00;;;;;;;22.58;94.67;101166.97;5043690;28;20050;-63
2023/09/12 11:46:13;;;;;;;17.95;9.95;;;;;;;22.61;94.92;101169.09;5033408;28;20051;-65
2023/09/12 11:49:02;;;;;;;18.20;11.35;;;;;;;22.63;94.98;101177.06;5021729;28;20053;-63
2023/09/12 11:51:54;;;;;;;17.98;10.73;;;;;;;22.67;95.24;101180.78;5049079;28;20048;-64
2023/09/12 11:54:43;;;;;;;14.15;9.20;;;;;;;22.71;93.78;101179.75;5050454;28;20057;-63
2023/09/12 11:57:32;;;;;;;15.75;9.05;;;;;;;22.75;92.29;101177.09;5047280;28;20508;-64
2023/09/12 12:00:20;;;;;;;15.35;10.25;;;;;;;22.78;92.77;101173.66;5049617;28;20450;-64
2023/09/12 12:03:08;;;;;;;14.95;9.27;;;;;;;22.82;92.51;101171.00;5033286;28;20088;-65
2023/09/12 12:05:56;;;;;;;15.25;9.35;;;;;;;22.88;91.38;101178.78;5050560;28;20701;-63
2023/09/12 12:08:45;;;;;;;17.55;9.60;;;;;;;22.91;90.02;101172.53;5020056;28;20051;-63
2023/09/12 12:11:33;;;;;;;15.00;8.05;;;;;;;22.95;89.50;101173.47;5049024;28;20624;-63
2023/09/12 12:14:21;;;;;;;12.82;7.18;;;;;;;22.96;86.27;101168.72;5029059;28;20049;-64
2023/09/12 12:17:10;;;;;;;14.20;7.80;;;;;;;22.98;86.17;101174.78;5028825;28;20057;-65
2023/09/12 12:19:58;;;;;;;16.20;7.55;;;;;;;23.00;86.53;101168.88;5028712;28;20852;-65
2023/09/12 12:22:46;;;;;;;15.30;7.22;;;;;;;23.03;86.47;101163.44;5035158;28;20619;-64
2023/09/12 12:25:35;;;;;;;10.23;4.88;;;;;;;23.04;81.48;101167.84;5047437;28;20131;-65
2023/09/12 12:28:24;;;;;;;9.70;5.13;;;;;;;23.02;80.43;101167.38;5050229;28;20052;-64
2023/09/12 12:31:12;;;;;;;8.48;5.30;;;;;;;23.01;81.35;101170.50;5034897;28;20135;-64
2023/09/12 12:34:00;;;;;;;8.50;4.68;;;;;;;22.96;80.28;101166.75;5034382;28;20060;-62
2023/09/12 12:37:08;;;;;;;7.38;4.43;;;;;;;22.99;80.07;101167.25;5047894;28;20179;-64
2023/09/12 12:39:56;;;;;;;10.52;4.90;;;;;;;23.00;79.70;101163.31;5027081;28;20049;-64
2023/09/12 12:42:49;;;;;;;10.60;4.60;;;;;;;23.08;79.34;101170.75;5022911;28;20052;-64
2023/09/12 12:45:53;;;;;;;11.50;6.93;;;;;;;23.18;82.39;101150.81;5034441;28;20056;-64